JBU301 KFLL-KLAX
Flight info
| Callsign | JBU301 |
|---|---|
| Flight time | N/A |
| Altitude | 30000 |
| Route | BNICE2 DOLIE Y280 LEV LFK LBB/N0467F320 ACH KA33U TANER HUNVI TBC JASSE Q90 DNERO ANJLL4 |
| Aircraft | A321/M-SDE3FGHIRWY/LB1 |
Departure
| Time | 2026-05-05 16:12 |
|---|---|
| Airport | Fort Lauderdale Hollywood International Airport (KFLL) |
Arrival
| Time | N/A |
|---|---|
| Airport | Los Angeles International Airport (KLAX) |
| Time | Latitude | Longitude | Altitude | Speed | Heading |
|---|---|---|---|---|---|
| 2026-05-05 14:55 | 26.07123 | -80.14752 | 21 ft | 0 kts | 115° |
| 2026-05-05 16:00 | 26.07123 | -80.14753 | 21 ft | 1 kts | 115° |
| 2026-05-05 16:00 | 26.07130 | -80.14768 | 21 ft | 3 kts | 116° |
| 2026-05-05 16:01 | 26.07139 | -80.14788 | 16 ft | 3 kts | 122° |
| 2026-05-05 16:01 | 26.07151 | -80.14805 | 16 ft | 3 kts | 147° |
| 2026-05-05 16:01 | 26.07162 | -80.14811 | 28 ft | 2 kts | 211° |
| 2026-05-05 16:01 | 26.07166 | -80.14809 | 24 ft | 0 kts | 225° |
| 2026-05-05 16:05 | 26.07164 | -80.14811 | 25 ft | 2 kts | 225° |
| 2026-05-05 16:05 | 26.07148 | -80.14829 | 25 ft | 5 kts | 225° |
| 2026-05-05 16:06 | 26.07130 | -80.14873 | 21 ft | 8 kts | 263° |
| 2026-05-05 16:06 | 26.07156 | -80.14934 | 21 ft | 10 kts | 319° |
| 2026-05-05 16:06 | 26.07229 | -80.14949 | 21 ft | 12 kts | 359° |
| 2026-05-05 16:06 | 26.07320 | -80.14944 | 21 ft | 14 kts | 17° |
| 2026-05-05 16:07 | 26.07415 | -80.14962 | 20 ft | 16 kts | 315° |
| 2026-05-05 16:07 | 26.07498 | -80.15054 | 20 ft | 18 kts | 316° |
| 2026-05-05 16:07 | 26.07563 | -80.15168 | 17 ft | 18 kts | 275° |
| 2026-05-05 16:07 | 26.07564 | -80.15311 | 17 ft | 19 kts | 270° |
| 2026-05-05 16:08 | 26.07565 | -80.15459 | 16 ft | 19 kts | 270° |
| 2026-05-05 16:08 | 26.07564 | -80.15608 | 18 ft | 19 kts | 269° |
| 2026-05-05 16:08 | 26.07563 | -80.15750 | 20 ft | 18 kts | 270° |
| 2026-05-05 16:08 | 26.07563 | -80.15885 | 22 ft | 17 kts | 272° |
| 2026-05-05 16:09 | 26.07568 | -80.16012 | 24 ft | 16 kts | 271° |
| 2026-05-05 16:09 | 26.07567 | -80.16136 | 25 ft | 16 kts | 269° |
| 2026-05-05 16:09 | 26.07569 | -80.16262 | 26 ft | 17 kts | 271° |
| 2026-05-05 16:09 | 26.07570 | -80.16399 | 27 ft | 19 kts | 270° |
| 2026-05-05 16:10 | 26.07571 | -80.16548 | 24 ft | 18 kts | 271° |
| 2026-05-05 16:10 | 26.07611 | -80.16641 | 22 ft | 11 kts | 344° |
| 2026-05-05 16:10 | 26.07686 | -80.16632 | 22 ft | 9 kts | 43° |
| 2026-05-05 16:10 | 26.07694 | -80.16601 | 23 ft | 0 kts | 88° |
| 2026-05-05 16:11 | 26.07694 | -80.16549 | 23 ft | 32 kts | 89° |
| 2026-05-05 16:11 | 26.07677 | -80.13808 | 294 ft | 173 kts | 89° |
| 2026-05-05 16:12 | 26.07663 | -80.12454 | 892 ft | 176 kts | 89° |
| 2026-05-05 16:12 | 26.08097 | -80.09722 | 1664 ft | 191 kts | 61° |
| 2026-05-05 16:13 | 26.11261 | -80.06240 | 2163 ft | 249 kts | 20° |
| 2026-05-05 16:13 | 26.12905 | -80.05588 | 2741 ft | 256 kts | 19° |
| 2026-05-05 16:13 | 26.14639 | -80.05052 | 3488 ft | 262 kts | 6° |
| 2026-05-05 16:14 | 26.18274 | -80.05654 | 4969 ft | 270 kts | 340° |
| 2026-05-05 16:14 | 26.21662 | -80.07441 | 6318 ft | 274 kts | 319° |
| 2026-05-05 16:15 | 26.23717 | -80.10985 | 7512 ft | 279 kts | 290° |
| 2026-05-05 16:15 | 26.25137 | -80.15047 | 8907 ft | 282 kts | 289° |
| 2026-05-05 16:16 | 26.25940 | -80.19314 | 10252 ft | 283 kts | 279° |
| 2026-05-05 16:16 | 26.26594 | -80.23891 | 10530 ft | 319 kts | 279° |
| 2026-05-05 16:17 | 26.27329 | -80.29024 | 10768 ft | 350 kts | 279° |
| 2026-05-05 16:17 | 26.27716 | -80.31736 | 11078 ft | 357 kts | 279° |
| 2026-05-05 16:18 | 26.28497 | -80.37255 | 12077 ft | 361 kts | 278° |
| 2026-05-05 16:18 | 26.28885 | -80.39999 | 12580 ft | 363 kts | 279° |
| 2026-05-05 16:18 | 26.29676 | -80.45588 | 13630 ft | 366 kts | 278° |
| 2026-05-05 16:19 | 26.30072 | -80.48397 | 14102 ft | 367 kts | 279° |
| 2026-05-05 16:19 | 26.30473 | -80.51231 | 14552 ft | 369 kts | 279° |
| 2026-05-05 16:19 | 26.31269 | -80.56885 | 15494 ft | 371 kts | 279° |
| 2026-05-05 16:20 | 26.32068 | -80.62603 | 16404 ft | 375 kts | 279° |
| 2026-05-05 16:20 | 26.32873 | -80.68343 | 17296 ft | 378 kts | 280° |
| 2026-05-05 16:21 | 26.33689 | -80.74183 | 18176 ft | 382 kts | 280° |
| 2026-05-05 16:22 | 26.34917 | -80.82990 | 19279 ft | 386 kts | 280° |
| 2026-05-05 16:22 | 26.35794 | -80.88930 | 19966 ft | 388 kts | 285° |
| 2026-05-05 16:23 | 26.38081 | -80.94312 | 20623 ft | 390 kts | 306° |
| 2026-05-05 16:23 | 26.39925 | -80.96549 | 20943 ft | 393 kts | 315° |
| 2026-05-05 16:23 | 26.43918 | -81.00715 | 21559 ft | 396 kts | 314° |
| 2026-05-05 16:24 | 26.45930 | -81.02831 | 21862 ft | 397 kts | 314° |
| 2026-05-05 16:24 | 26.47948 | -81.04955 | 22157 ft | 399 kts | 314° |
| 2026-05-05 16:24 | 26.51986 | -81.09210 | 22721 ft | 401 kts | 314° |
| 2026-05-05 16:25 | 26.54027 | -81.11363 | 23021 ft | 403 kts | 314° |
| 2026-05-05 16:25 | 26.57433 | -81.14954 | 23478 ft | 405 kts | 314° |
| 2026-05-05 16:25 | 26.60158 | -81.17830 | 23837 ft | 407 kts | 314° |
| 2026-05-05 16:26 | 26.63583 | -81.21450 | 24287 ft | 407 kts | 314° |
| 2026-05-05 16:26 | 26.67721 | -81.25833 | 24779 ft | 409 kts | 314° |
| 2026-05-05 16:27 | 26.69762 | -81.28007 | 25016 ft | 410 kts | 314° |
| 2026-05-05 16:27 | 26.71830 | -81.30213 | 25263 ft | 411 kts | 315° |
| 2026-05-05 16:27 | 26.73908 | -81.32424 | 25505 ft | 411 kts | 315° |
| 2026-05-05 16:27 | 26.75987 | -81.34632 | 25734 ft | 412 kts | 315° |
| 2026-05-05 16:28 | 26.78077 | -81.36853 | 25962 ft | 413 kts | 315° |
| 2026-05-05 16:28 | 26.80141 | -81.39051 | 26185 ft | 414 kts | 315° |
| 2026-05-05 16:28 | 26.82241 | -81.41288 | 26406 ft | 415 kts | 315° |
| 2026-05-05 16:28 | 26.84338 | -81.43524 | 26639 ft | 417 kts | 315° |
| 2026-05-05 16:29 | 26.86445 | -81.45776 | 26871 ft | 418 kts | 315° |
| 2026-05-05 16:29 | 26.88529 | -81.48008 | 27102 ft | 419 kts | 315° |
| 2026-05-05 16:29 | 26.90644 | -81.50272 | 27335 ft | 420 kts | 315° |
| 2026-05-05 16:29 | 26.92766 | -81.52539 | 27679 ft | 419 kts | 315° |
| 2026-05-05 16:30 | 26.94871 | -81.54791 | 28043 ft | 416 kts | 315° |
| 2026-05-05 16:30 | 26.96938 | -81.57005 | 28390 ft | 415 kts | 315° |
| 2026-05-05 16:30 | 26.99023 | -81.59239 | 28732 ft | 413 kts | 315° |
| 2026-05-05 16:30 | 27.01104 | -81.61468 | 29069 ft | 412 kts | 315° |
| 2026-05-05 16:31 | 27.03175 | -81.63689 | 29401 ft | 411 kts | 315° |
| 2026-05-05 16:31 | 27.05244 | -81.65906 | 29700 ft | 410 kts | 316° |
| 2026-05-05 16:31 | 27.07308 | -81.68118 | 30001 ft | 409 kts | 315° |
| 2026-05-05 16:31 | 27.09333 | -81.70291 | 30066 ft | 405 kts | 315° |
| 2026-05-05 16:32 | 27.13392 | -81.74657 | 30071 ft | 402 kts | 315° |
| 2026-05-05 16:32 | 27.17411 | -81.78981 | 30069 ft | 401 kts | 315° |
| 2026-05-05 16:33 | 27.21462 | -81.83345 | 30320 ft | 406 kts | 315° |
| 2026-05-05 16:33 | 27.23499 | -81.85543 | 30566 ft | 405 kts | 315° |
| 2026-05-05 16:33 | 27.25473 | -81.87821 | 30893 ft | 402 kts | 310° |
| 2026-05-05 16:34 | 27.27131 | -81.90346 | 31201 ft | 401 kts | 303° |
| 2026-05-05 16:34 | 27.28445 | -81.93072 | 31490 ft | 400 kts | 296° |
| 2026-05-05 16:34 | 27.29427 | -81.96020 | 31770 ft | 402 kts | 290° |
| 2026-05-05 16:34 | 27.30069 | -81.99085 | 32000 ft | 403 kts | 286° |
| 2026-05-05 16:35 | 27.31218 | -82.05207 | 32070 ft | 401 kts | 286° |
| 2026-05-05 16:35 | 27.32374 | -82.11341 | 32071 ft | 401 kts | 286° |
| 2026-05-05 16:36 | 27.33524 | -82.17483 | 32067 ft | 401 kts | 286° |
| 2026-05-05 16:36 | 27.34665 | -82.23629 | 32067 ft | 401 kts | 286° |
| 2026-05-05 16:37 | 27.35798 | -82.29741 | 32067 ft | 401 kts | 286° |
| 2026-05-05 16:37 | 27.36931 | -82.35849 | 32067 ft | 401 kts | 286° |
| 2026-05-05 16:38 | 27.38072 | -82.42008 | 32033 ft | 401 kts | 286° |
| 2026-05-05 16:38 | 27.39194 | -82.48134 | 32041 ft | 402 kts | 285° |
| 2026-05-05 16:39 | 27.40321 | -82.54329 | 32071 ft | 403 kts | 285° |
| 2026-05-05 16:39 | 27.41455 | -82.60485 | 32076 ft | 404 kts | 286° |
| 2026-05-05 16:40 | 27.42626 | -82.66694 | 32057 ft | 404 kts | 286° |
| 2026-05-05 16:40 | 27.43788 | -82.72867 | 32068 ft | 405 kts | 286° |
| 2026-05-05 16:41 | 27.44934 | -82.79050 | 32060 ft | 405 kts | 285° |
| 2026-05-05 16:41 | 27.46087 | -82.85280 | 32066 ft | 405 kts | 285° |
| 2026-05-05 16:42 | 27.47231 | -82.91465 | 32072 ft | 405 kts | 285° |
| 2026-05-05 16:42 | 27.48380 | -82.97689 | 32081 ft | 405 kts | 285° |
| 2026-05-05 16:43 | 27.49522 | -83.03870 | 32088 ft | 405 kts | 285° |
| 2026-05-05 16:43 | 27.50668 | -83.10102 | 32094 ft | 405 kts | 285° |
| 2026-05-05 16:44 | 27.51801 | -83.16295 | 32083 ft | 405 kts | 285° |
| 2026-05-05 16:44 | 27.52933 | -83.22517 | 32086 ft | 405 kts | 285° |
| 2026-05-05 16:45 | 27.54061 | -83.28720 | 32093 ft | 405 kts | 285° |
| 2026-05-05 16:45 | 27.55195 | -83.34959 | 32097 ft | 406 kts | 285° |
| 2026-05-05 16:46 | 27.56325 | -83.41192 | 32099 ft | 406 kts | 285° |
| 2026-05-05 16:46 | 27.57447 | -83.47398 | 32100 ft | 406 kts | 285° |
| 2026-05-05 16:47 | 27.58567 | -83.53611 | 32089 ft | 405 kts | 284° |
| 2026-05-05 16:47 | 27.59688 | -83.59860 | 32091 ft | 406 kts | 284° |
| 2026-05-05 16:48 | 27.60803 | -83.66099 | 32093 ft | 406 kts | 284° |
| 2026-05-05 16:48 | 27.61919 | -83.72307 | 32096 ft | 406 kts | 284° |
| 2026-05-05 16:49 | 27.63036 | -83.78565 | 32099 ft | 406 kts | 284° |
| 2026-05-05 16:49 | 27.64142 | -83.84788 | 32099 ft | 406 kts | 284° |
| 2026-05-05 16:50 | 27.65250 | -83.91053 | 32099 ft | 406 kts | 284° |
| 2026-05-05 16:50 | 27.66353 | -83.97288 | 32080 ft | 407 kts | 284° |
| 2026-05-05 16:51 | 27.67457 | -84.03566 | 32088 ft | 407 kts | 284° |
| 2026-05-05 16:51 | 27.68552 | -84.09802 | 32089 ft | 407 kts | 284° |
| 2026-05-05 16:52 | 27.69658 | -84.16085 | 32090 ft | 407 kts | 284° |
| 2026-05-05 16:52 | 27.70752 | -84.22327 | 32085 ft | 407 kts | 284° |
| 2026-05-05 16:53 | 27.71841 | -84.28616 | 32087 ft | 407 kts | 284° |
| 2026-05-05 16:53 | 27.72935 | -84.34894 | 32075 ft | 407 kts | 284° |
| 2026-05-05 16:54 | 27.74019 | -84.41147 | 32074 ft | 407 kts | 284° |
| 2026-05-05 16:54 | 27.75109 | -84.47432 | 32074 ft | 407 kts | 284° |
| 2026-05-05 16:55 | 27.76191 | -84.53672 | 32072 ft | 407 kts | 284° |
| 2026-05-05 16:55 | 27.77274 | -84.59961 | 32072 ft | 407 kts | 284° |
| 2026-05-05 16:56 | 27.78333 | -84.66221 | 32072 ft | 407 kts | 284° |
| 2026-05-05 16:56 | 27.79410 | -84.72509 | 32078 ft | 407 kts | 283° |
| 2026-05-05 16:57 | 27.80486 | -84.78771 | 32084 ft | 407 kts | 283° |
| 2026-05-05 16:57 | 27.81552 | -84.85070 | 32085 ft | 407 kts | 283° |
| 2026-05-05 16:58 | 27.82612 | -84.91333 | 32085 ft | 407 kts | 283° |
| 2026-05-05 16:58 | 27.83681 | -84.97635 | 32087 ft | 408 kts | 283° |
| 2026-05-05 16:59 | 27.84744 | -85.03901 | 32087 ft | 407 kts | 283° |
| 2026-05-05 16:59 | 27.85804 | -85.10198 | 32074 ft | 407 kts | 283° |
| 2026-05-05 17:00 | 27.86857 | -85.16500 | 32071 ft | 408 kts | 283° |
| 2026-05-05 17:00 | 27.87902 | -85.22775 | 32078 ft | 408 kts | 283° |
| 2026-05-05 17:01 | 27.89355 | -85.28951 | 32080 ft | 405 kts | 290° |
| 2026-05-05 17:01 | 27.91184 | -85.34958 | 32080 ft | 406 kts | 290° |
| 2026-05-05 17:02 | 27.93022 | -85.41014 | 32083 ft | 406 kts | 290° |
| 2026-05-05 17:02 | 27.94840 | -85.47031 | 32078 ft | 406 kts | 290° |
| 2026-05-05 17:03 | 27.96674 | -85.53102 | 32080 ft | 406 kts | 290° |
| 2026-05-05 17:03 | 27.98494 | -85.59149 | 32078 ft | 406 kts | 290° |
| 2026-05-05 17:04 | 28.00308 | -85.65183 | 32107 ft | 406 kts | 290° |
| 2026-05-05 17:04 | 28.02116 | -85.71212 | 32100 ft | 405 kts | 290° |
| 2026-05-05 17:05 | 28.03932 | -85.77264 | 32096 ft | 405 kts | 290° |
| 2026-05-05 17:05 | 28.05729 | -85.83276 | 32092 ft | 404 kts | 290° |
| 2026-05-05 17:06 | 28.07526 | -85.89310 | 32087 ft | 404 kts | 290° |
| 2026-05-05 17:06 | 28.09313 | -85.95313 | 32085 ft | 403 kts | 290° |
| 2026-05-05 17:07 | 28.11108 | -86.01348 | 32082 ft | 403 kts | 290° |
| 2026-05-05 17:07 | 28.12892 | -86.07345 | 32082 ft | 404 kts | 290° |
| 2026-05-05 17:08 | 28.14683 | -86.13399 | 32085 ft | 404 kts | 290° |
| 2026-05-05 17:08 | 28.16467 | -86.19396 | 32075 ft | 403 kts | 290° |
| 2026-05-05 17:09 | 28.18252 | -86.25449 | 32075 ft | 403 kts | 290° |
| 2026-05-05 17:09 | 28.20016 | -86.31477 | 32075 ft | 403 kts | 290° |
| 2026-05-05 17:10 | 28.21784 | -86.37490 | 32072 ft | 403 kts | 290° |
| 2026-05-05 17:10 | 28.23570 | -86.43544 | 32074 ft | 404 kts | 290° |
| 2026-05-05 17:11 | 28.25344 | -86.49589 | 32076 ft | 404 kts | 290° |
| 2026-05-05 17:11 | 28.27108 | -86.55602 | 32075 ft | 403 kts | 290° |
| 2026-05-05 17:12 | 28.28878 | -86.61656 | 32061 ft | 404 kts | 290° |
| 2026-05-05 17:12 | 28.30627 | -86.67679 | 32069 ft | 404 kts | 290° |
| 2026-05-05 17:13 | 28.32397 | -86.73763 | 32067 ft | 405 kts | 290° |
| 2026-05-05 17:13 | 28.34169 | -86.79794 | 32089 ft | 404 kts | 290° |
| 2026-05-05 17:14 | 28.35951 | -86.85859 | 32088 ft | 404 kts | 290° |
| 2026-05-05 17:14 | 28.37707 | -86.91882 | 32086 ft | 403 kts | 290° |
| 2026-05-05 17:15 | 28.39473 | -86.97942 | 32078 ft | 403 kts | 289° |
| 2026-05-05 17:15 | 28.41222 | -87.03956 | 32074 ft | 403 kts | 289° |
| 2026-05-05 17:16 | 28.42686 | -87.08998 | 32076 ft | 403 kts | 289° |
| 2026-05-05 17:16 | 28.44442 | -87.15055 | 32078 ft | 403 kts | 289° |
| 2026-05-05 17:17 | 28.46185 | -87.21076 | 32077 ft | 402 kts | 289° |
| 2026-05-05 17:17 | 28.47935 | -87.27153 | 32076 ft | 402 kts | 289° |
| 2026-05-05 17:18 | 28.49675 | -87.33169 | 32063 ft | 402 kts | 289° |
| 2026-05-05 17:18 | 28.51420 | -87.39225 | 32065 ft | 403 kts | 289° |
| 2026-05-05 17:19 | 28.53169 | -87.45295 | 32069 ft | 403 kts | 289° |
| 2026-05-05 17:19 | 28.54903 | -87.51343 | 32072 ft | 404 kts | 289° |
| 2026-05-05 17:20 | 28.56638 | -87.57429 | 32070 ft | 403 kts | 289° |
| 2026-05-05 17:20 | 28.58362 | -87.63476 | 32072 ft | 404 kts | 289° |
| 2026-05-05 17:21 | 28.60099 | -87.69561 | 32075 ft | 404 kts | 289° |
| 2026-05-05 17:22 | 28.62696 | -87.78678 | 32066 ft | 404 kts | 289° |
| 2026-05-05 17:22 | 28.64417 | -87.84749 | 32067 ft | 405 kts | 289° |
| 2026-05-05 17:23 | 28.66142 | -87.90857 | 32090 ft | 404 kts | 289° |
| 2026-05-05 17:23 | 28.67853 | -87.96910 | 32087 ft | 403 kts | 289° |
| 2026-05-05 17:24 | 28.69578 | -88.02995 | 32082 ft | 402 kts | 289° |
| 2026-05-05 17:24 | 28.71280 | -88.09032 | 32080 ft | 402 kts | 289° |
| 2026-05-05 17:25 | 28.72980 | -88.15117 | 32075 ft | 402 kts | 288° |
| 2026-05-05 17:25 | 28.74665 | -88.21163 | 32073 ft | 402 kts | 288° |
| 2026-05-05 17:26 | 28.76370 | -88.27242 | 32071 ft | 402 kts | 289° |
| 2026-05-05 17:26 | 28.78066 | -88.33283 | 32060 ft | 402 kts | 288° |
| 2026-05-05 17:27 | 28.79773 | -88.39385 | 32064 ft | 402 kts | 288° |
| 2026-05-05 17:27 | 28.81455 | -88.45424 | 32064 ft | 402 kts | 288° |
| 2026-05-05 17:28 | 28.83139 | -88.51518 | 32047 ft | 402 kts | 288° |
| 2026-05-05 17:28 | 28.84818 | -88.57584 | 32046 ft | 403 kts | 288° |
| 2026-05-05 17:29 | 28.86505 | -88.63700 | 32049 ft | 403 kts | 288° |
| 2026-05-05 17:29 | 28.88187 | -88.69807 | 32051 ft | 403 kts | 288° |
| 2026-05-05 17:30 | 28.89652 | -88.75963 | 32049 ft | 404 kts | 284° |
| 2026-05-05 17:30 | 28.90927 | -88.82215 | 32045 ft | 404 kts | 284° |
| 2026-05-05 17:31 | 28.92193 | -88.88433 | 32047 ft | 404 kts | 284° |
| 2026-05-05 17:31 | 28.93505 | -88.94688 | 32042 ft | 404 kts | 284° |
| 2026-05-05 17:32 | 28.94827 | -89.00894 | 32041 ft | 404 kts | 285° |
| 2026-05-05 17:32 | 28.96159 | -89.07143 | 32069 ft | 404 kts | 285° |
| 2026-05-05 17:33 | 28.97478 | -89.13373 | 32063 ft | 402 kts | 284° |
| 2026-05-05 17:33 | 28.98776 | -89.19560 | 32059 ft | 402 kts | 284° |
| 2026-05-05 17:34 | 29.00078 | -89.25780 | 32047 ft | 401 kts | 284° |
| 2026-05-05 17:34 | 29.01371 | -89.31958 | 32042 ft | 401 kts | 284° |
| 2026-05-05 17:35 | 29.02675 | -89.38175 | 32037 ft | 401 kts | 284° |
| 2026-05-05 17:35 | 29.03961 | -89.44345 | 32033 ft | 401 kts | 284° |
| 2026-05-05 17:36 | 29.05252 | -89.50575 | 32031 ft | 402 kts | 284° |
| 2026-05-05 17:36 | 29.06530 | -89.56760 | 32031 ft | 402 kts | 284° |
| 2026-05-05 17:37 | 29.07819 | -89.62986 | 32032 ft | 401 kts | 284° |
| 2026-05-05 17:37 | 29.09101 | -89.69185 | 32031 ft | 401 kts | 284° |
| 2026-05-05 17:38 | 29.10385 | -89.75414 | 32022 ft | 401 kts | 284° |
| 2026-05-05 17:38 | 29.11664 | -89.81645 | 32022 ft | 402 kts | 284° |
| 2026-05-05 17:39 | 29.12930 | -89.87837 | 32022 ft | 402 kts | 284° |
| 2026-05-05 17:39 | 29.14203 | -89.94087 | 32022 ft | 402 kts | 284° |
| 2026-05-05 17:40 | 29.15462 | -90.00279 | 32012 ft | 402 kts | 284° |
| 2026-05-05 17:40 | 29.16725 | -90.06515 | 32016 ft | 402 kts | 284° |
| 2026-05-05 17:41 | 29.18501 | -90.12558 | 32019 ft | 402 kts | 296° |
| 2026-05-05 17:41 | 29.21090 | -90.18190 | 32020 ft | 402 kts | 296° |
| 2026-05-05 17:42 | 29.23684 | -90.23876 | 32022 ft | 402 kts | 296° |
| 2026-05-05 17:42 | 29.26273 | -90.29564 | 32052 ft | 402 kts | 296° |
| 2026-05-05 17:43 | 29.28829 | -90.35211 | 32048 ft | 401 kts | 296° |
| 2026-05-05 17:43 | 29.31401 | -90.40884 | 32031 ft | 401 kts | 296° |
| 2026-05-05 17:44 | 29.33963 | -90.46517 | 32027 ft | 401 kts | 296° |
| 2026-05-05 17:44 | 29.36540 | -90.52204 | 32022 ft | 401 kts | 296° |
| 2026-05-05 17:45 | 29.39111 | -90.57894 | 32019 ft | 401 kts | 296° |
| 2026-05-05 17:45 | 29.41663 | -90.63549 | 32008 ft | 401 kts | 296° |
| 2026-05-05 17:46 | 29.44207 | -90.69213 | 32004 ft | 401 kts | 296° |
| 2026-05-05 17:46 | 29.46770 | -90.74915 | 32005 ft | 401 kts | 296° |
| 2026-05-05 17:47 | 29.49333 | -90.80620 | 32007 ft | 401 kts | 296° |
| 2026-05-05 17:47 | 29.51875 | -90.86278 | 32008 ft | 400 kts | 296° |
| 2026-05-05 17:48 | 29.54431 | -90.91962 | 32033 ft | 400 kts | 296° |
| 2026-05-05 17:48 | 29.56965 | -90.97623 | 32017 ft | 399 kts | 296° |
| 2026-05-05 17:49 | 29.59502 | -91.03305 | 32015 ft | 398 kts | 296° |
| 2026-05-05 17:49 | 29.62017 | -91.08951 | 32015 ft | 398 kts | 296° |
| 2026-05-05 17:50 | 29.64540 | -91.14631 | 32015 ft | 398 kts | 296° |
| 2026-05-05 17:50 | 29.67048 | -91.20265 | 32018 ft | 398 kts | 295° |
| 2026-05-05 17:51 | 29.69574 | -91.25943 | 32016 ft | 398 kts | 295° |
| 2026-05-05 17:51 | 29.72081 | -91.31589 | 32017 ft | 398 kts | 295° |
| 2026-05-05 17:52 | 29.74600 | -91.37272 | 32019 ft | 398 kts | 295° |